Details for Ryanair at EGAA




Go Back


Latest METAR
Local Time

EGAA 212320Z 31005KT CAVOK 09/07 Q1034

22/06/2018, 00:38:20

Description
Results
Ryanair Logo
Number of Pilots based at EGAA
1 Pilots Based here
Number of Ryanair Flights Departed from EGAA
6 Flights Departed
Number of Ryanair Flights Arrived at EGAA
5 Flights Arrived
Number of Ryanair Schedules Departing from EGAA
30 Schedules
Number of Ryanair Schedules Arriving at EGAA
30 Schedules
Number of Ryanair Schedules Departing from EGAA availible today
7 Schedules Today
Number of Ryanair Schedules Arriving at EGAA availible today
7 Schedules Today
Average Landing Rate at EGAA
-230 fpm
Ryanair Average Landing Rate at EGAA
-139 fpm
Total Fuel Purchased at EGAA by Ryanair
33,228.81 kgs / 73,256.23 lbs

Pilots Based at EGAA


Pilot ID
Pilot Name
Pilot Rank
No. of Flights
No. of Flying Hours
Dean Cullen
144
185.37
Content